createdAt,value
2018-09-18T00:01:57.501Z,1.10
2018-09-18T00:04:25.565Z,1.00
2018-09-18T00:06:53.427Z,1.10
2018-09-18T00:09:21.301Z,1.07
2018-09-18T00:11:49.165Z,1.10
2018-09-18T00:14:17.044Z,1.10
2018-09-18T00:16:46.810Z,1.10
2018-09-18T00:19:14.914Z,1.17
2018-09-18T00:21:43.281Z,1.10
2018-09-18T00:24:11.278Z,1.23
2018-09-18T00:26:39.430Z,1.20
2018-09-18T00:29:07.521Z,1.23
2018-09-18T00:31:35.566Z,1.17
2018-09-18T00:34:03.653Z,1.00
2018-09-18T00:36:31.712Z,1.27
2018-09-18T00:38:59.601Z,1.10
2018-09-18T00:41:27.545Z,0.90
2018-09-18T00:43:55.417Z,0.93
2018-09-18T00:46:23.393Z,1.20
2018-09-18T00:48:51.469Z,1.20
2018-09-18T00:51:19.377Z,1.13
2018-09-18T00:53:47.294Z,1.30
2018-09-18T00:56:15.369Z,1.10
2018-09-18T00:58:43.558Z,1.00
2018-09-18T01:01:11.461Z,1.20
2018-09-18T01:03:39.338Z,1.13
2018-09-18T01:06:07.353Z,1.10
2018-09-18T01:08:35.226Z,1.20
2018-09-18T01:11:03.113Z,1.17
2018-09-18T01:13:30.985Z,1.20
2018-09-18T01:15:59.025Z,1.10
2018-09-18T01:18:34.373Z,1.10
2018-09-18T01:21:02.257Z,1.20
2018-09-18T01:23:30.245Z,0.90
2018-09-18T01:25:58.321Z,1.00
2018-09-18T01:28:26.197Z,1.10
2018-09-18T01:30:54.204Z,1.20
2018-09-18T01:33:22.074Z,0.97
2018-09-18T01:35:49.973Z,1.30
2018-09-18T01:38:18.747Z,1.20
2018-09-18T01:40:46.625Z,0.97
2018-09-18T01:43:14.546Z,1.20
2018-09-18T01:45:42.635Z,1.10
2018-09-18T01:48:10.501Z,1.23
2018-09-18T01:50:38.385Z,1.10
2018-09-18T01:53:06.553Z,1.00
2018-09-18T01:55:34.609Z,1.10
2018-09-18T01:58:02.513Z,1.13
2018-09-18T02:00:30.445Z,1.10
2018-09-18T02:02:58.322Z,1.30
2018-09-18T02:05:26.194Z,1.10
2018-09-18T02:07:54.077Z,1.10
2018-09-18T02:10:21.950Z,1.40
2018-09-18T02:12:49.880Z,1.30
2018-09-18T02:15:17.752Z,1.20
2018-09-18T02:17:45.854Z,1.20
2018-09-18T02:20:13.721Z,1.20
2018-09-18T02:22:41.609Z,1.30
2018-09-18T02:25:09.609Z,1.20
2018-09-18T02:27:37.696Z,1.13
2018-09-18T02:30:05.754Z,1.30
2018-09-18T02:32:33.658Z,1.20
2018-09-18T02:35:01.599Z,1.20
2018-09-18T02:37:29.489Z,1.10
2018-09-18T02:39:57.356Z,1.17
2018-09-18T02:42:25.510Z,1.30
2018-09-18T02:44:53.493Z,1.30
2018-09-18T02:47:21.381Z,1.30
2018-09-18T02:49:49.528Z,1.20
2018-09-18T02:52:17.719Z,1.30
2018-09-18T02:54:45.854Z,1.30
2018-09-18T02:57:13.776Z,1.30
2018-09-18T02:59:41.686Z,1.40
2018-09-18T03:02:09.562Z,1.00
2018-09-18T03:04:37.450Z,1.20
2018-09-18T03:07:05.335Z,1.20
2018-09-18T03:09:33.322Z,1.17
2018-09-18T03:12:01.253Z,1.10
2018-09-18T03:14:29.149Z,1.30
2018-09-18T03:16:57.230Z,1.10
2018-09-18T03:19:25.345Z,1.30
2018-09-18T03:21:53.412Z,1.30
2018-09-18T03:24:21.414Z,1.30
2018-09-18T03:26:49.286Z,1.20
2018-09-18T03:29:17.331Z,1.30
2018-09-18T03:31:45.674Z,1.50
2018-09-18T03:34:13.773Z,1.07
2018-09-18T03:36:41.758Z,1.20
2018-09-18T03:39:09.745Z,1.20
2018-09-18T03:41:37.685Z,1.00
2018-09-18T03:44:05.577Z,1.00
2018-09-18T03:46:33.458Z,1.30
2018-09-18T03:49:01.593Z,1.00
2018-09-18T03:51:29.647Z,1.20
2018-09-18T03:53:57.540Z,1.30
2018-09-18T03:56:25.416Z,1.20
2018-09-18T03:58:53.577Z,1.20
2018-09-18T04:01:21.427Z,1.30
2018-09-18T04:03:49.410Z,1.20
2018-09-18T04:06:17.465Z,1.23
2018-09-18T04:08:45.351Z,1.30
2018-09-18T04:11:13.297Z,1.27
2018-09-18T04:13:41.216Z,1.30
2018-09-18T04:16:09.082Z,1.20
2018-09-18T04:18:36.965Z,1.20
2018-09-18T04:21:04.966Z,1.20
2018-09-18T04:23:32.844Z,1.30
2018-09-18T04:26:00.724Z,1.40
2018-09-18T04:28:28.593Z,1.00
2018-09-18T04:30:56.493Z,1.57
2018-09-18T04:33:24.401Z,1.13
2018-09-18T04:35:52.285Z,1.43
2018-09-18T04:38:20.246Z,1.30
2018-09-18T04:40:48.151Z,1.30
2018-09-18T04:43:16.102Z,1.03
2018-09-18T04:45:43.987Z,1.33
2018-09-18T04:48:11.916Z,1.23
2018-09-18T04:50:39.806Z,1.17
2018-09-18T04:53:07.745Z,1.23
2018-09-18T04:55:35.829Z,1.43
2018-09-18T04:58:03.890Z,1.33
2018-09-18T05:00:31.773Z,1.60
2018-09-18T05:02:59.654Z,1.23
2018-09-18T05:05:27.806Z,1.20
2018-09-18T05:07:55.869Z,1.30
2018-09-18T05:10:23.757Z,1.37
2018-09-18T05:12:51.638Z,1.50
2018-09-18T05:15:19.805Z,1.20
2018-09-18T05:17:47.853Z,1.40
2018-09-18T05:20:15.917Z,1.10
2018-09-18T05:22:43.996Z,1.10
2018-09-18T05:25:11.864Z,1.40
2018-09-18T05:27:39.833Z,1.37
2018-09-18T05:30:07.889Z,1.17
2018-09-18T05:32:35.791Z,1.20
2018-09-18T05:35:03.725Z,1.60
2018-09-18T05:37:31.809Z,1.30
2018-09-18T05:39:59.873Z,1.30
2018-09-18T05:42:27.953Z,1.20
2018-09-18T05:44:55.837Z,1.30
2018-09-18T05:47:23.718Z,1.50
2018-09-18T05:49:51.858Z,1.60
2018-09-18T05:52:19.742Z,1.20
2018-09-18T05:54:47.609Z,1.40
2018-09-18T05:57:15.769Z,1.20
2018-09-18T05:59:43.824Z,1.10
2018-09-18T06:02:11.754Z,1.30
2018-09-18T06:04:39.662Z,1.20
2018-09-18T06:07:07.550Z,1.60
2018-09-18T06:09:35.416Z,1.47
2018-09-18T06:12:03.594Z,1.30
2018-09-18T06:14:31.641Z,1.30
2018-09-18T06:16:59.709Z,1.30
2018-09-18T06:19:27.637Z,1.20
2018-09-18T06:21:55.513Z,1.20
2018-09-18T06:24:23.418Z,1.37
2018-09-18T06:26:51.668Z,1.33
2018-09-18T06:29:19.775Z,2.20
2018-09-18T06:31:47.829Z,2.93
2018-09-18T06:34:15.689Z,3.20
2018-09-18T06:36:43.752Z,2.97
2018-09-18T06:39:12.189Z,2.97
2018-09-18T06:41:40.455Z,3.37
2018-09-18T06:44:08.512Z,3.50
2018-09-18T06:46:36.387Z,3.00
2018-09-18T06:49:04.522Z,3.10
2018-09-18T06:51:32.388Z,3.10
2018-09-18T06:54:00.277Z,3.40
2018-09-18T06:56:28.242Z,3.43
2018-09-18T06:58:56.129Z,3.20
2018-09-18T07:01:23.998Z,3.40
2018-09-18T07:03:52.158Z,2.93
2018-09-18T07:06:20.012Z,3.37
2018-09-18T07:08:48.001Z,3.17
2018-09-18T07:11:16.054Z,3.20
2018-09-18T07:13:44.142Z,3.10
2018-09-18T07:16:12.012Z,3.30
2018-09-18T07:18:39.972Z,3.17
2018-09-18T07:21:07.848Z,3.10
2018-09-18T07:23:35.739Z,3.70
2018-09-18T07:26:03.609Z,4.10
2018-09-18T07:28:31.624Z,3.70
2018-09-18T07:30:59.529Z,3.70
2018-09-18T07:33:27.461Z,3.23
2018-09-18T07:35:55.346Z,3.30
2018-09-18T07:38:23.300Z,3.77
2018-09-18T07:40:51.198Z,3.70
2018-09-18T07:43:19.265Z,3.40
2018-09-18T07:45:47.150Z,3.30
2018-09-18T07:48:15.045Z,3.60
2018-09-18T07:50:43.008Z,3.27
2018-09-18T07:53:10.848Z,3.67
2018-09-18T07:55:38.729Z,3.83
2018-09-18T07:58:06.637Z,3.80
2018-09-18T08:00:34.721Z,3.50
2018-09-18T08:03:02.664Z,3.53
2018-09-18T08:05:30.561Z,3.70
2018-09-18T08:07:58.425Z,3.77
2018-09-18T08:10:26.398Z,3.73
2018-09-18T08:12:54.457Z,3.67
2018-09-18T08:15:22.545Z,4.10
2018-09-18T08:17:50.414Z,3.90
2018-09-18T08:20:18.377Z,3.63
2018-09-18T08:22:46.454Z,4.00
2018-09-18T08:25:14.352Z,3.83
2018-09-18T08:27:42.248Z,3.83
2018-09-18T08:30:10.338Z,4.43
2018-09-18T08:32:38.445Z,4.13
2018-09-18T08:35:06.284Z,3.73
2018-09-18T08:37:34.152Z,3.67
2018-09-18T08:40:02.448Z,3.80
2018-09-18T08:42:30.236Z,3.77
2018-09-18T08:44:58.113Z,3.97
2018-09-18T08:47:26.278Z,4.33
2018-09-18T08:49:54.133Z,4.50
2018-09-18T08:52:22.072Z,4.53
2018-09-18T08:54:49.955Z,4.30
2018-09-18T08:57:17.931Z,4.27
2018-09-18T08:59:45.965Z,4.70
2018-09-18T09:02:13.877Z,3.57
2018-09-18T09:04:41.745Z,4.50
2018-09-18T09:07:09.876Z,4.70
2018-09-18T09:09:37.778Z,4.43
2018-09-18T09:12:05.848Z,4.67
2018-09-18T09:14:33.723Z,4.10
2018-09-18T09:17:02.489Z,4.30
2018-09-18T09:19:30.353Z,3.90
2018-09-18T09:21:58.288Z,4.00
2018-09-18T09:24:26.102Z,3.70
2018-09-18T09:26:54.482Z,3.93
2018-09-18T09:29:22.324Z,3.93
2018-09-18T09:31:50.285Z,3.63
2018-09-18T09:34:18.275Z,3.90
2018-09-18T09:36:46.462Z,4.43
2018-09-18T09:39:14.490Z,4.03
2018-09-18T09:41:42.386Z,3.47
2018-09-18T09:44:10.253Z,3.93
2018-09-18T09:46:38.409Z,3.60
2018-09-18T09:49:06.286Z,3.73
2018-09-18T09:51:34.205Z,3.70
2018-09-18T09:54:02.366Z,3.90
2018-09-18T09:56:30.213Z,3.43
2018-09-18T09:58:58.094Z,4.00
2018-09-18T10:01:31.645Z,3.80
2018-09-18T10:03:59.521Z,3.87
2018-09-18T10:06:27.614Z,4.00
2018-09-18T10:08:55.525Z,3.83
2018-09-18T10:11:23.426Z,3.43
2018-09-18T10:13:51.484Z,3.80
2018-09-18T10:16:19.396Z,4.70
2018-09-18T10:18:47.349Z,4.70
2018-09-18T10:21:15.383Z,4.20
2018-09-18T10:23:43.476Z,4.03
2018-09-18T10:26:11.446Z,3.80
2018-09-18T10:28:39.308Z,3.67
2018-09-18T10:31:07.688Z,3.40
2018-09-18T10:33:35.774Z,3.83
2018-09-18T10:36:03.654Z,3.70
2018-09-18T10:38:31.594Z,3.57
2018-09-18T10:40:59.748Z,3.40
2018-09-18T10:43:27.545Z,3.60
2018-09-18T10:45:55.434Z,3.20
2018-09-18T10:48:23.337Z,3.40
2018-09-18T10:50:51.326Z,3.17
2018-09-18T10:53:19.209Z,3.10
2018-09-18T10:55:47.153Z,3.07
2018-09-18T10:58:15.045Z,3.37
2018-09-18T11:00:42.996Z,3.03
2018-09-18T11:03:10.921Z,3.37
2018-09-18T11:05:38.825Z,3.13
2018-09-18T11:08:06.730Z,3.33
2018-09-18T11:10:34.613Z,3.33
2018-09-18T11:13:02.749Z,3.60
2018-09-18T11:15:30.687Z,3.10
2018-09-18T11:17:58.589Z,3.33
2018-09-18T11:20:26.518Z,3.57
2018-09-18T11:22:55.044Z,3.20
2018-09-18T11:25:22.922Z,3.70
2018-09-18T11:27:50.799Z,3.23
2018-09-18T11:30:18.924Z,3.33
2018-09-18T11:32:47.040Z,3.53
2018-09-18T11:35:15.065Z,3.37
2018-09-18T11:37:42.949Z,3.60
2018-09-18T11:40:10.902Z,3.60
2018-09-18T11:42:38.990Z,3.33
2018-09-18T11:45:07.203Z,3.30
2018-09-18T11:47:35.125Z,3.10
2018-09-18T11:50:02.996Z,3.30
2018-09-18T11:52:30.885Z,3.27
2018-09-18T11:54:59.025Z,3.40
2018-09-18T11:57:27.867Z,3.20
2018-09-18T11:59:55.781Z,3.30
2018-09-18T12:02:23.867Z,3.90
2018-09-18T12:04:51.894Z,3.33
2018-09-18T12:07:20.008Z,3.50
2018-09-18T12:09:48.070Z,3.10
2018-09-18T12:12:16.102Z,3.80
2018-09-18T12:14:44.521Z,3.40
2018-09-18T12:17:12.534Z,3.47
2018-09-18T12:19:40.670Z,3.67
2018-09-18T12:22:08.567Z,2.93
2018-09-18T12:24:36.514Z,3.40
2018-09-18T12:27:04.517Z,3.33
2018-09-18T12:29:32.650Z,3.00
2018-09-18T12:32:00.542Z,3.03
2018-09-18T12:34:28.487Z,3.80
2018-09-18T12:36:56.577Z,3.13
2018-09-18T12:39:24.458Z,3.37
2018-09-18T12:41:52.413Z,3.67
2018-09-18T12:44:20.372Z,2.97
2018-09-18T12:46:48.254Z,3.30
2018-09-18T12:49:16.192Z,3.60
2018-09-18T12:51:48.063Z,3.37
2018-09-18T12:54:16.051Z,3.30
2018-09-18T12:56:44.266Z,3.20
2018-09-18T12:59:12.067Z,3.23
2018-09-18T13:01:40.030Z,3.10
2018-09-18T13:04:07.913Z,3.10
2018-09-18T13:06:35.969Z,3.20
2018-09-18T13:09:05.185Z,2.93
2018-09-18T13:11:33.070Z,2.97
2018-09-18T13:14:01.150Z,3.20
2018-09-18T13:16:29.090Z,3.00
2018-09-18T13:19:01.586Z,3.30
2018-09-18T13:21:29.513Z,3.43
2018-09-18T13:23:57.729Z,3.53
2018-09-18T13:26:25.677Z,3.23
2018-09-18T13:28:53.734Z,2.98
2018-09-18T13:31:21.798Z,3.00
2018-09-18T13:33:49.884Z,3.30
2018-09-18T13:36:17.967Z,3.40
2018-09-18T13:38:45.833Z,3.53
2018-09-18T13:41:13.808Z,3.40
2018-09-18T13:43:41.837Z,3.73
2018-09-18T13:46:10.580Z,3.40
2018-09-18T13:48:38.598Z,3.90
2018-09-18T13:51:06.681Z,4.27
2018-09-18T13:53:34.749Z,3.60
2018-09-18T13:56:02.873Z,4.37
2018-09-18T13:58:30.701Z,4.13
2018-09-18T14:00:58.663Z,3.60
2018-09-18T14:03:26.721Z,3.93
2018-09-18T14:05:54.789Z,4.05
2018-09-18T14:08:22.889Z,3.70
2018-09-18T14:10:50.924Z,3.90
2018-09-18T14:13:18.811Z,3.40
2018-09-18T14:15:46.786Z,3.70
2018-09-18T14:18:14.677Z,3.73
2018-09-18T14:20:42.617Z,3.75
2018-09-18T14:23:10.678Z,3.50
2018-09-18T14:25:38.599Z,3.50
2018-09-18T14:28:06.510Z,3.43
2018-09-18T14:30:34.426Z,3.50
2018-09-18T14:33:02.309Z,3.58
2018-09-18T14:35:30.325Z,4.10
2018-09-18T14:37:58.555Z,3.50
2018-09-18T14:40:26.411Z,3.43
2018-09-18T14:42:54.229Z,3.33
2018-09-18T14:45:22.462Z,3.73
2018-09-18T14:47:50.385Z,3.60
2018-09-18T14:50:18.385Z,4.00
2018-09-18T14:52:46.297Z,3.52
2018-09-18T14:55:14.382Z,3.17
2018-09-18T14:57:42.261Z,3.50
2018-09-18T15:00:10.238Z,4.05
2018-09-18T15:02:38.197Z,4.03
2018-09-18T15:05:06.370Z,3.70
2018-09-18T15:07:34.418Z,4.12
2018-09-18T15:10:02.490Z,3.75
2018-09-18T15:12:30.378Z,3.37
2018-09-18T15:14:58.303Z,3.55
2018-09-18T15:17:26.413Z,3.10
2018-09-18T15:19:54.365Z,3.80
2018-09-18T15:22:22.449Z,3.80
2018-09-18T15:24:50.510Z,3.47
2018-09-18T15:27:18.402Z,4.08
2018-09-18T15:29:46.332Z,4.28
2018-09-18T15:32:14.546Z,4.47
2018-09-18T15:34:42.471Z,3.80
2018-09-18T15:37:10.805Z,4.42
2018-09-18T15:39:39.022Z,9.63
2018-09-18T15:42:07.052Z,12.93
2018-09-18T15:44:35.141Z,10.78
2018-09-18T15:47:03.226Z,8.50
2018-09-18T15:49:31.229Z,7.95
2018-09-18T15:51:59.163Z,7.78
2018-09-18T15:54:27.001Z,7.42
2018-09-18T15:56:55.040Z,6.70
2018-09-18T15:59:23.126Z,7.37
2018-09-18T16:01:51.219Z,7.30
2018-09-18T16:04:19.086Z,6.95
2018-09-18T16:06:46.972Z,6.62
2018-09-18T16:09:14.853Z,6.45
2018-09-18T16:11:42.762Z,6.33
2018-09-18T16:14:10.834Z,6.10
2018-09-18T16:16:38.819Z,7.12
2018-09-18T16:19:06.992Z,6.58
2018-09-18T16:21:34.928Z,5.67
2018-09-18T16:24:02.800Z,6.40
2018-09-18T16:26:30.781Z,6.58
2018-09-18T16:28:58.824Z,6.33
2018-09-18T16:31:26.917Z,6.28
2018-09-18T16:33:54.971Z,5.80
2018-09-18T16:36:23.058Z,6.20
2018-09-18T16:38:51.128Z,6.12
2018-09-18T16:41:19.014Z,6.10
2018-09-18T16:43:46.901Z,6.17
2018-09-18T16:46:15.015Z,5.80
2018-09-18T16:48:43.149Z,6.10
2018-09-18T16:51:11.171Z,5.85
2018-09-18T16:53:39.241Z,5.87
2018-09-18T16:56:07.304Z,5.47
2018-09-18T16:58:35.446Z,5.40
2018-09-18T17:01:03.673Z,5.70
2018-09-18T17:03:31.575Z,6.30
2018-09-18T17:05:59.587Z,6.10
2018-09-18T17:08:27.941Z,5.45
2018-09-18T17:10:56.042Z,5.17
2018-09-18T17:13:23.972Z,5.78
2018-09-18T17:15:51.822Z,5.53
2018-09-18T17:18:19.995Z,5.33
2018-09-18T17:20:47.843Z,5.40
2018-09-18T17:23:15.726Z,5.00
2018-09-18T17:25:43.809Z,5.35
2018-09-18T17:28:11.927Z,5.12
2018-09-18T17:30:39.950Z,5.25
2018-09-18T17:33:07.782Z,5.47
2018-09-18T17:35:35.875Z,5.12
2018-09-18T17:38:03.913Z,4.73
2018-09-18T17:40:31.979Z,4.73
2018-09-18T17:42:59.865Z,5.20
2018-09-18T17:45:27.750Z,5.70
2018-09-18T17:47:55.641Z,4.92
2018-09-18T17:50:23.570Z,5.23
2018-09-18T17:52:51.407Z,4.70
2018-09-18T17:55:19.481Z,4.70
2018-09-18T17:57:47.565Z,5.42
2018-09-18T18:00:15.441Z,4.40
2018-09-18T18:02:43.352Z,4.83
2018-09-18T18:05:11.457Z,5.53
2018-09-18T18:07:39.540Z,4.63
2018-09-18T18:10:07.598Z,4.57
2018-09-18T18:12:35.687Z,4.40
2018-09-18T18:15:03.553Z,4.30
2018-09-18T18:17:31.538Z,4.67
2018-09-18T18:20:00.520Z,4.70
2018-09-18T18:22:28.581Z,4.83
2018-09-18T18:24:56.449Z,4.30
2018-09-18T18:27:24.417Z,4.47
2018-09-18T18:29:52.482Z,4.17
2018-09-18T18:32:20.394Z,4.53
2018-09-18T18:34:48.260Z,4.40
2018-09-18T18:37:16.131Z,4.60
2018-09-18T18:39:44.159Z,4.53
2018-09-18T18:42:12.156Z,4.47
2018-09-18T18:44:40.330Z,4.83
2018-09-18T18:47:08.361Z,4.50
2018-09-18T18:49:37.933Z,4.60
2018-09-18T18:52:06.270Z,4.13
2018-09-18T18:54:34.478Z,4.17
2018-09-18T18:57:02.406Z,4.23
2018-09-18T18:59:30.277Z,3.97
2018-09-18T19:01:58.173Z,4.50
2018-09-18T19:04:26.224Z,4.13
2018-09-18T19:06:54.249Z,4.47
2018-09-18T19:09:22.244Z,4.00
2018-09-18T19:11:50.229Z,4.53
2018-09-18T19:14:18.109Z,4.30
2018-09-18T19:16:46.142Z,3.80
2018-09-18T19:19:14.128Z,4.00
2018-09-18T19:21:42.276Z,4.23
2018-09-18T19:24:10.393Z,3.90
2018-09-18T19:26:38.274Z,4.00
2018-09-18T19:29:06.226Z,4.00
2018-09-18T19:31:34.254Z,4.17
2018-09-18T19:34:02.187Z,3.57
2018-09-18T19:36:30.090Z,4.10
2018-09-18T19:38:58.016Z,3.60
2018-09-18T19:41:25.853Z,4.00
2018-09-18T19:43:54.020Z,4.03
2018-09-18T19:46:22.092Z,3.63
2018-09-18T19:48:50.153Z,3.40
2018-09-18T19:51:18.027Z,3.90
2018-09-18T19:53:45.989Z,3.97
2018-09-18T19:56:14.053Z,3.90
2018-09-18T19:58:42.131Z,3.93
2018-09-18T20:01:09.996Z,3.67
2018-09-18T20:03:37.974Z,4.03
2018-09-18T20:06:05.873Z,3.70
2018-09-18T20:08:33.816Z,3.80
2018-09-18T20:11:01.692Z,3.67
2018-09-18T20:13:29.637Z,3.60
2018-09-18T20:15:57.509Z,3.53
2018-09-18T20:18:25.477Z,3.57
2018-09-18T20:20:53.561Z,3.67
2018-09-18T20:23:21.428Z,3.77
2018-09-18T20:25:49.365Z,3.63
2018-09-18T20:28:17.270Z,3.27
2018-09-18T20:30:45.204Z,3.60
2018-09-18T20:33:13.097Z,3.60
2018-09-18T20:35:41.070Z,3.77
2018-09-18T20:38:08.941Z,3.60
2018-09-18T20:40:37.018Z,3.50
2018-09-18T20:43:04.964Z,3.17
2018-09-18T20:45:33.036Z,3.63
2018-09-18T20:48:00.901Z,3.67
2018-09-18T20:50:28.791Z,3.77
2018-09-18T20:52:56.920Z,3.50
2018-09-18T20:55:25.006Z,3.03
2018-09-18T20:57:53.074Z,3.20
2018-09-18T21:00:20.958Z,3.57
2018-09-18T21:02:48.914Z,3.13
2018-09-18T21:05:16.985Z,3.50
2018-09-18T21:07:45.049Z,2.90
2018-09-18T21:10:12.942Z,3.23
2018-09-18T21:12:40.876Z,3.33
2018-09-18T21:15:08.965Z,3.40
2018-09-18T21:17:36.841Z,3.30
2018-09-18T21:20:04.730Z,3.40
2018-09-18T21:22:32.598Z,3.30
2018-09-18T21:25:06.670Z,3.50
2018-09-18T21:27:34.550Z,3.20
2018-09-18T21:30:02.617Z,3.27
2018-09-18T21:32:30.521Z,3.10
2018-09-18T21:34:58.454Z,3.40
2018-09-18T21:37:26.526Z,3.00
2018-09-18T21:39:54.620Z,3.30
2018-09-18T21:42:22.644Z,3.50
2018-09-18T21:44:50.729Z,3.20
2018-09-18T21:47:18.605Z,3.83
2018-09-18T21:49:46.581Z,3.40
2018-09-18T21:52:14.636Z,3.30
2018-09-18T21:54:42.541Z,2.93
2018-09-18T21:57:10.401Z,3.07
2018-09-18T21:59:38.545Z,3.37
2018-09-18T22:02:06.453Z,3.03
2018-09-18T22:04:34.353Z,2.97
2018-09-18T22:07:02.522Z,3.50
2018-09-18T22:09:30.390Z,3.27
2018-09-18T22:11:58.272Z,3.50
2018-09-18T22:14:26.477Z,3.10
2018-09-18T22:16:54.428Z,3.00
2018-09-18T22:19:22.413Z,3.63
2018-09-18T22:21:50.705Z,3.20
2018-09-18T22:24:18.632Z,2.97
2018-09-18T22:26:46.714Z,2.93
2018-09-18T22:29:14.581Z,2.90
2018-09-18T22:31:42.553Z,3.50
2018-09-18T22:34:10.534Z,3.13
2018-09-18T22:36:38.697Z,3.10
2018-09-18T22:39:07.062Z,3.23
2018-09-18T22:41:35.174Z,3.10
2018-09-18T22:44:03.202Z,3.30
2018-09-18T22:46:31.089Z,3.60
2018-09-18T22:48:59.040Z,3.20
2018-09-18T22:51:27.125Z,3.03
2018-09-18T22:53:55.121Z,3.00
2018-09-18T22:56:23.305Z,2.90
2018-09-18T22:58:51.138Z,3.10
2018-09-18T23:01:19.111Z,2.80
2018-09-18T23:03:47.160Z,2.47
2018-09-18T23:06:15.254Z,3.20
2018-09-18T23:08:43.547Z,2.70
2018-09-18T23:11:11.691Z,2.97
2018-09-18T23:13:39.557Z,3.10
2018-09-18T23:16:07.529Z,3.33
2018-09-18T23:18:35.414Z,3.00
2018-09-18T23:21:03.363Z,3.00
2018-09-18T23:23:31.419Z,2.97
2018-09-18T23:25:59.310Z,2.80
2018-09-18T23:28:27.183Z,2.90
2018-09-18T23:30:55.359Z,3.10
2018-09-18T23:33:23.228Z,3.20
2018-09-18T23:35:51.107Z,3.17
2018-09-18T23:38:19.249Z,2.80
2018-09-18T23:40:47.121Z,2.90
2018-09-18T23:43:15.081Z,3.10
2018-09-18T23:45:43.141Z,2.90
2018-09-18T23:48:11.257Z,3.30
2018-09-18T23:50:39.153Z,2.80
2018-09-18T23:53:07.319Z,2.80
2018-09-18T23:55:35.190Z,2.93
2018-09-18T23:58:03.204Z,3.00
